Chapelle-lez-Herlaimont, Belgium
Current Conditions -  °F | °C
As of 5:20 PM on Monday 24 Nov 2014 (Local Time) from EBCI Reporting Station
Few Clouds Few Clouds  
Wind Chill: 38°   Ceiling: Unl
Heat Index: 43°   Visibility: 6mi
Dew Point: 39°   Wind: 8mph
Humidity: 87%   Direction: 50°NE
Pressure: 30.3"   Gusts: NA
Location:  50.47°N, 4.28°E
Report Text: EBCI 241620Z 05007KT 9999 FEW021 06/04 Q1026
Loading
Personal Weather Stations






























Interactive Weather Map New forecast layout! Learn more

10-Day Weather Forecast

Advertisements
Track Severe Weather on mobile